Pagrindinis puslapis
METAR-TAF:

METAR-TAF

Oro uostai :

Kamagvėjus, Kuba

platuma: 21-25N, ilguma: 077-51W, Aukštis: 122 m

Dabartinis oras

Ataskaita buvo paskelbta 1 valandą ir 8 minutes, ne 11:50 UTC
Vėjas 7 kt iš Šiaurės
Temperatūra 21°C
Drėgmė 88%
Slėgis 1017 hPa
Matomumas: 9000 m
Išsisklaidę debesys ne aukštis 2000 ft

METAR: MUCM 211150Z 35007KT 9000 SCT020 21/19 Q1017

Laikas: 07:58 (12:58 UTC)

Prognozė

Ataskaita buvo paskelbta 1 valandą ir 58 minutes, ne 11:00 UTC
Prognozė galioja nuo 21 metu 12 UTC su 22 metu 12 UTC
Vėjas 3 kt nuo kintamojo kryptimis
Matomumas: 9000 m
Išsisklaidę debesys ne aukštis 2000 ft
Tapsmas
nuo 21 metu 15 UTC su 21 metu 17 UTC
Vėjas 10 kt iš Šiaurės Rytų
Tapsmas
nuo 22 metu 01 UTC su 22 metu 03 UTC
Vėjas 3 kt nuo kintamojo kryptimis

TAF: MUCM 211100Z 2112/2212 VRB03KT 9000 SCT020 BECMG 2115/2117 04010KT BECMG 2201/2203 VRB03KT

Orai ataskaitas ir orų prognozės (METAR, TAF).

turimą stotys yra geltonos ir raudonos taškus žemėlapyje.

Perkelti pele per norėdami pamatyti stoties vardą.

Tada spustelėkite, norėdami matyti oro stebėjimo ir prognozės.

Norėdami pakeisti žemėlapį: spustelėkite ant žalios mygtukų su juodo kryžiaus žemyn,; žalią mygtuką su brūkšneliu, jei norite nutolinti; arba žalių rodyklių gretimoms žemėlapius.


METAR-TAF: